メインページ
METAR-TAF:

METAR-TAF

空港 :

ナタール, リオグランデ・ド・ノルテ州, ブラジル

緯度: 05-46-05S, 経度: 035-22-34W, 海抜: 88m

現時点の気象観測

当レポートは17分前の02:00(UTC)に作成
南/南西の風 4kt、から南西の間で変化する
気温 24°C
湿度 94%
気圧 1014 hPa
視程10km以上
高度1700ftの千切れ雲あり

METAR: SBSG 010200Z 20004KT 170V230 9999 BKN017 24/23 Q1014

時間: 23:17 (02:17 UTC)

予報

当レポートは5時間17分前の21:00(UTC)に作成
予報は01日の 00時(UTC)から 01日の 24時(UTC)まで有効
南/南西の風 4kt
視程: 8000m
高度2000ftの千切れ雲あり
01日の 12時(UTC)から 01日の 13時(UTC)まで徐々に
の風 9kt
01日の 14時(UTC)から 01日の 16時(UTC)まで徐々に
高度2000ftの雲は散在している
01日の 21時(UTC)から 01日の 22時(UTC)まで徐々に
南/南東の風 8kt

TAF: SBSG 302100Z 0100/0124 21004KT 8000 BKN020 TN24/0108Z TX28/0115Z BECMG 0112/0113 18009KT BECMG 0114/0116 SCT020 BECMG 0121/0122 16008KT RMK PEA

4,000以上の空港の気象観測と天気予報(METAR報とTAF報)

利用可能な観測所は地図上に黄色い丸と赤い丸で示す。

丸の上にカーソルを重ねると観測所名を参照できる。

次にクリックすると気象観測と天気予報を参照できる。

マップの切り替え:黒色「×」印の緑ボタンをクリックして拡大、「-」印の緑ボタンをクリックして縮小、緑色の三角印をクリックして隣りの地図に切り替え


METAR-TAF: